Ace High — WQZ3340 — position and weather

sailwx.info

Track history (hours):
 
Tides and Currents Weather Stations Pressure Air Temp Water Temp Dewpoint Dewpoint Depression Visibility Wind Speed Wind Dir Waves Ship Positions

Ace High

Owner: C & C BOATS INC, HUNTINGTON BEACH, CA. More information available from US FCC via Universal Licensing System and Coast Guard Vessel Documentation Center.

Last reported at 2018-May-26 14:01 UTC. Time now 2018-May-26 14:08 UTC.
Position N 34°23' W 120°10'.

Length 96 m.

Type: Passenger vessel. MMSI: 367394750.

Date/timePositionNaut miles runAvg speedWind from/ knotsBaromVisibWave heightAir tempDewpointWater temp
2018-May-26 14:01N 34°23' W 120°10'1 1.1
2018-May-26 13:30N 34°23' W 120°09'613.0
2018-May-26 13:01N 34°21' W 120°17'4 8.5
2018-May-26 12:30N 34°22' W 120°12'4 7.2
2018-May-26 11:58N 34°23' W 120°07'0 0.5
2018-May-26 11:30N 34°23' W 120°07'0 0.0
2018-May-26 10:59N 34°23' W 120°07'0 0.0
2018-May-26 10:29N 34°23' W 120°07'0 0.0
2018-May-26 09:55N 34°23' W 120°07'0 0.0
2018-May-26 09:30N 34°23' W 120°07'0 0.0
2018-May-26 09:00N 34°23' W 120°07'0 0.0
2018-May-26 08:29N 34°23' W 120°07'0 0.0
2018-May-26 08:01N 34°23' W 120°07'0 0.1
2018-May-26 07:29N 34°23' W 120°07'0 0.0
2018-May-26 06:59N 34°23' W 120°07'0 0.0
2018-May-26 06:30N 34°23' W 120°07'0 0.0
2018-May-26 05:28N 34°23' W 120°07'0 0.0
2018-May-26 05:00N 34°23' W 120°07'0 0.0
2018-May-26 04:29N 34°23' W 120°07'0 0.0
2018-May-26 03:57N 34°23' W 120°07'0 0.0
2018-May-26 03:29N 34°23' W 120°07'0 0.0
2018-May-26 03:00N 34°23' W 120°07'0 0.0
2018-May-26 02:30N 34°23' W 120°07'0 0.0
2018-May-26 02:00N 34°23' W 120°07'0 0.1
2018-May-26 01:30N 34°23' W 120°07'0 0.0
2018-May-26 00:59N 34°23' W 120°07'0 0.1
2018-May-26 00:31N 34°23' W 120°07'3 4.9
2018-May-25 23:59N 34°23' W 120°10'6 9.4
2018-May-25 23:22N 34°21' W 120°17'3 7.6
2018-May-25 23:00N 34°22' W 120°14'3 5.6
2018-May-25 22:25N 34°22' W 120°10'0 0.0
2018-May-25 22:00N 34°22' W 120°10'0 0.0
2018-May-25 21:29N 34°22' W 120°10'0 0.0
2018-May-25 21:00N 34°22' W 120°10'0 0.0
2018-May-25 20:30N 34°23' W 120°10'0 0.0
2018-May-25 19:39N 34°22' W 120°10'0 0.0
2018-May-25 19:09N 34°22' W 120°10'0 0.0
2018-May-25 19:00N 34°22' W 120°10'0 0.0
2018-May-25 18:21N 34°22' W 120°10'0 0.0
2018-May-25 17:54N 34°22' W 120°10'0 0.0
2018-May-25 17:30N 34°22' W 120°10'0 0.0
2018-May-25 16:30N 34°23' W 120°10'0 0.1
2018-May-25 15:54N 34°22' W 120°10'0 0.0
2018-May-25 15:29N 34°23' W 120°10'611.9
2018-May-25 15:00N 34°21' W 120°17'610.7
2018-May-25 14:27N 34°23' W 120°10'2 4.2
2018-May-25 14:00N 34°23' W 120°08'4 7.2
2018-May-25 13:31N 34°22' W 120°12'4 7.9
2018-May-25 12:58N 34°21' W 120°17'511.8
2018-May-25 12:31N 34°23' W 120°11'3 5.1
2018-May-25 11:57N 34°23' W 120°07'0 0.3
2018-May-25 11:27N 34°23' W 120°07'0 0.0
2018-May-25 11:00N 34°23' W 120°07'0 0.0
2018-May-25 10:26N 34°23' W 120°07'0 0.0
2018-May-25 09:57N 34°23' W 120°07'0 0.0
2018-May-25 09:30N 34°23' W 120°07'0 0.0
2018-May-25 08:57N 34°23' W 120°07'0 0.0
2018-May-25 08:26N 34°23' W 120°07'0 0.0
2018-May-25 08:00N 34°23' W 120°07'0 0.0
2018-May-25 07:27N 34°23' W 120°07'0 0.0
2018-May-25 07:00N 34°23' W 120°07'0 0.0
2018-May-25 06:27N 34°23' W 120°07'0 0.0
2018-May-25 05:57N 34°23' W 120°07'0 0.0
2018-May-25 05:30N 34°23' W 120°07'0 0.0
2018-May-25 05:01N 34°23' W 120°07'0 0.0
2018-May-25 04:30N 34°23' W 120°07'0 0.1
2018-May-25 04:01N 34°23' W 120°07'0 0.0
2018-May-25 03:30N 34°23' W 120°07'0 0.1
2018-May-25 03:01N 34°23' W 120°07'0 0.1
2018-May-25 02:31N 34°23' W 120°07'0 0.0
2018-May-25 02:01N 34°23' W 120°07'0 0.0
2018-May-25 01:30N 34°23' W 120°07'0 0.0
2018-May-25 00:55N 34°23' W 120°07'0 0.3
2018-May-25 00:30N 34°23' W 120°07'511.0
2018-May-25 00:00N 34°21' W 120°13'2 4.6
2018-May-24 23:30N 34°21' W 120°16'510.0
2018-May-24 22:59N 34°22' W 120°10'0 0.0
2018-May-24 22:11N 34°22' W 120°10'0 0.0
2018-May-24 21:59N 34°22' W 120°10'0 0.0
2018-May-24 21:23N 34°22' W 120°10'2 5.3
2018-May-24 20:57N 34°23' W 120°07'713.0
2018-May-24 20:22N 34°24' W 119°58'3 7.5
2018-May-24 19:59N 34°26' W 119°55'0 0.1
2018-May-24 16:44N 34°26' W 119°55'0 0.0
2018-May-24 16:23N 34°26' W 119°55'0 0.5
2018-May-24 15:56N 34°26' W 119°55'0 0.4
2018-May-24 15:25N 34°26' W 119°55'0 0.4
2018-May-24 14:55N 34°26' W 119°55'4 8.1
2018-May-24 14:27N 34°24' W 119°60'613.1
2018-May-24 14:01N 34°24' W 120°07'5 9.5
2018-May-24 13:31N 34°22' W 120°12'4 1.0
2018-May-24 08:55N 34°23' W 120°07'0 0.0
2018-May-24 08:25N 34°23' W 120°07'0 0.0
2018-May-24 07:55N 34°23' W 120°07'0 0.0
2018-May-24 07:28N 34°23' W 120°07'0 0.0
2018-May-24 06:16N 34°23' W 120°07'0 0.0
2018-May-24 05:55N 34°23' W 120°07'0 0.0
2018-May-24 04:58N 34°23' W 120°07'0 0.0
2018-May-24 04:22N 34°23' W 120°07'0 0.1
2018-May-24 03:56N 34°23' W 120°07'0 0.0
2018-May-24 03:30N 34°23' W 120°07'0 0.1
2018-May-24 02:59N 34°23' W 120°07'0 0.0
2018-May-24 02:29N 34°23' W 120°07'0 0.0
2018-May-24 02:00N 34°23' W 120°07'0 0.0
2018-May-24 01:30N 34°23' W 120°07'0 0.0
2018-May-24 00:59N 34°23' W 120°07'0 0.0
2018-May-24 00:29N 34°23' W 120°07'0 0.0
2018-May-24 00:00N 34°23' W 120°07'4 5.4
2018-May-23 23:20N 34°23' W 120°03'7 5.1
2018-May-23 22:03N 34°26' W 119°55'0 0.0
2018-May-23 17:03N 34°26' W 119°55'0 0.0
2018-May-23 16:39N 34°26' W 119°55'0 1.8
2018-May-23 16:30N 34°26' W 119°55'611.9
2018-May-23 16:00N 34°24' W 120°02'4 7.4
2018-May-23 15:27N 34°23' W 120°07'1 2.1
2018-May-23 15:01N 34°23' W 120°08'713.6
2018-May-23 14:31N 34°21' W 120°16'4 6.9
2018-May-23 14:00N 34°22' W 120°12'4 8.5
2018-May-23 13:30N 34°23' W 120°07'0 0.1
2018-May-23 13:00N 34°23' W 120°07'0 0.0
2018-May-23 12:30N 34°23' W 120°07'0 0.0
2018-May-23 12:00N 34°23' W 120°07'0 0.0
2018-May-23 11:30N 34°23' W 120°07'0 0.0
2018-May-23 11:00N 34°23' W 120°07'0 0.0
2018-May-23 10:27N 34°23' W 120°07'0 0.0
2018-May-23 10:00N 34°23' W 120°07'0 0.1
2018-May-23 09:30N 34°23' W 120°07'0 0.0
2018-May-23 08:57N 34°23' W 120°07'0 0.0
2018-May-23 08:30N 34°23' W 120°07'0 0.0
2018-May-23 08:00N 34°23' W 120°07'0 0.0
2018-May-23 07:30N 34°23' W 120°07'0 0.0
2018-May-23 06:18N 34°23' W 120°07'0 0.0
2018-May-23 06:00N 34°23' W 120°07'0 0.0
2018-May-23 05:12N 34°23' W 120°07'0 0.0
2018-May-23 04:57N 34°23' W 120°07'0 0.0
2018-May-23 04:30N 34°23' W 120°07'0 0.0
2018-May-23 03:59N 34°23' W 120°07'0 0.1
2018-May-23 03:30N 34°23' W 120°07'0 0.0
2018-May-23 02:57N 34°23' W 120°07'0 0.0
2018-May-23 02:26N 34°23' W 120°07'0 0.0
2018-May-23 01:56N 34°23' W 120°07'10 1.4
2018-May-22 18:54N 34°26' W 119°55'0 0.0
2018-May-22 16:47N 34°26' W 119°55'0 0.0
2018-May-22 16:19N 34°26' W 119°55'3 7.5
2018-May-22 15:56N 34°24' W 119°58'713.7
2018-May-22 15:25N 34°24' W 120°07'511.0
2018-May-22 14:59N 34°22' W 120°12'4 8.1
2018-May-22 14:29N 34°21' W 120°17'612.1
2018-May-22 14:00N 34°23' W 120°10'3 5.0
2018-May-22 13:30N 34°23' W 120°07'0 0.0
2018-May-22 13:00N 34°23' W 120°07'914.1
2018-May-22 12:23N 34°24' W 119°57'2 4.0
2018-May-22 11:52N 34°26' W 119°55'511.3
2018-May-22 11:25N 34°24' W 120°01'5 7.6
2018-May-22 10:45N 34°23' W 120°07'0 0.0
2018-May-22 10:29N 34°23' W 120°07'0 0.0
2018-May-22 09:59N 34°23' W 120°07'0 0.0
2018-May-22 09:29N 34°23' W 120°07'0 0.0
2018-May-22 08:59N 34°23' W 120°07'0 0.0
2018-May-22 08:29N 34°23' W 120°07'0 0.0
2018-May-22 07:58N 34°23' W 120°07'0 0.0
2018-May-22 07:28N 34°23' W 120°07'0 0.0
2018-May-22 06:57N 34°23' W 120°07'0 0.1
2018-May-22 06:28N 34°23' W 120°07'0 0.0
2018-May-22 05:48N 34°23' W 120°07'0 0.0
2018-May-22 05:23N 34°23' W 120°07'0 0.0
2018-May-22 05:00N 34°23' W 120°07'0 0.0
2018-May-22 04:28N 34°23' W 120°07'0 0.0
2018-May-22 03:58N 34°23' W 120°07'0 0.0
2018-May-22 02:55N 34°23' W 120°07'0 0.0
2018-May-22 02:28N 34°23' W 120°07'0 0.0
2018-May-22 02:00N 34°23' W 120°07'0 0.0
2018-May-22 01:18N 34°23' W 120°07'0 1.5
2018-May-22 01:00N 34°23' W 120°08'0 0.9
2018-May-22 00:29N 34°23' W 120°07'0 0.0
2018-May-21 23:59N 34°23' W 120°07'0 0.0
2018-May-21 23:08N 34°23' W 120°07'0 0.0
2018-May-21 22:59N 34°23' W 120°07'0 0.1
2018-May-21 22:30N 34°23' W 120°07'2 4.9
2018-May-21 22:00N 34°22' W 120°10'0 0.0
2018-May-21 21:30N 34°22' W 120°10'0 0.1
2018-May-21 21:00N 34°22' W 120°10'0 0.0
2018-May-21 20:26N 34°22' W 120°10'0 0.0
2018-May-21 20:00N 34°22' W 120°10'0 0.0
2018-May-21 19:29N 34°22' W 120°10'0 0.0
2018-May-21 18:59N 34°22' W 120°10'0 0.0
2018-May-21 18:25N 34°22' W 120°10'0 0.0
2018-May-21 17:58N 34°22' W 120°10'0 0.0
2018-May-21 17:25N 34°22' W 120°10'0 0.0
2018-May-21 16:59N 34°22' W 120°10'0 0.0
2018-May-21 16:28N 34°22' W 120°10'2 4.1
2018-May-21 16:01N 34°23' W 120°08'1 1.9
2018-May-21 15:30N 34°23' W 120°09'3 6.8
2018-May-21 15:00N 34°22' W 120°13'3 6.5
2018-May-21 14:28N 34°21' W 120°17'612.1
2018-May-21 14:00N 34°22' W 120°10'3 5.1
2018-May-21 13:30N 34°23' W 120°07'0 0.5
2018-May-21 13:00N 34°23' W 120°07'3 5.3
2018-May-21 12:30N 34°23' W 120°10'2 4.9
2018-May-21 12:00N 34°23' W 120°07'0 0.4
2018-May-21 11:27N 34°23' W 120°07'0 0.0
2018-May-21 10:59N 34°23' W 120°07'0 0.0
2018-May-21 10:30N 34°23' W 120°07'0 0.0
2018-May-21 10:00N 34°23' W 120°07'0 0.0
2018-May-21 09:29N 34°23' W 120°07'0 0.0
2018-May-21 08:59N 34°23' W 120°07'0 0.0
2018-May-21 08:30N 34°23' W 120°07'0 0.0
2018-May-21 07:58N 34°23' W 120°07'0 0.1
2018-May-21 07:31N 34°23' W 120°07'0 0.0
2018-May-21 06:55N 34°23' W 120°07'0 0.1
2018-May-21 06:28N 34°23' W 120°07'0 0.0
2018-May-21 06:00N 34°23' W 120°07'0 0.0
2018-May-21 05:30N 34°23' W 120°07'0 0.0
2018-May-21 04:55N 34°23' W 120°07'0 0.1
2018-May-21 04:28N 34°23' W 120°07'0 0.0
2018-May-21 03:58N 34°23' W 120°07'0 0.0
2018-May-21 03:28N 34°23' W 120°07'0 0.0
2018-May-21 02:58N 34°23' W 120°07'0 0.0
2018-May-21 02:29N 34°23' W 120°07'0 0.0
2018-May-21 01:56N 34°23' W 120°07'0 0.0
2018-May-21 01:29N 34°23' W 120°07'0 0.0
2018-May-21 00:59N 34°23' W 120°07'0 0.0
2018-May-21 00:25N 34°23' W 120°07'0 0.0
2018-May-20 23:51N 34°23' W 120°07'0 1.0
2018-May-20 23:30N 34°23' W 120°07'612.8
2018-May-20 23:00N 34°21' W 120°15'1 2.1
2018-May-20 22:30N 34°22' W 120°13'3 5.7
2018-May-20 22:00N 34°22' W 120°10'0 0.0
2018-May-20 21:31N 34°22' W 120°10'0 0.0
2018-May-20 20:59N 34°22' W 120°10'0 0.1
2018-May-20 20:27N 34°23' W 120°10'0 0.0
2018-May-20 19:57N 34°23' W 120°10'0 0.0
2018-May-20 19:20N 34°23' W 120°10'0 0.1
2018-May-20 18:56N 34°22' W 120°10'0 0.0
2018-May-20 18:26N 34°22' W 120°10'0 0.0
2018-May-20 17:58N 34°22' W 120°10'0 0.0
2018-May-20 17:20N 34°22' W 120°10'0 0.0
2018-May-20 16:59N 34°22' W 120°10'0 0.0
2018-May-20 16:27N 34°22' W 120°10'0 0.0
2018-May-20 15:55N 34°22' W 120°10'0 0.0
2018-May-20 15:30N 34°22' W 120°10'1 2.0
2018-May-20 15:01N 34°22' W 120°11'5 9.8
2018-May-20 14:30N 34°21' W 120°17'510.0
2018-May-20 14:00N 34°22' W 120°11'3 6.7
2018-May-20 13:30N 34°23' W 120°07'1 2.5
2018-May-20 12:59N 34°23' W 120°06'713.0
2018-May-20 12:29N 34°24' W 119°58'2 1.4
2018-May-20 10:41N 34°26' W 119°55'0 0.0
2018-May-20 10:26N 34°26' W 119°55'0 0.0
2018-May-20 08:51N 34°26' W 119°55'0 0.0
2018-May-20 06:14N 34°26' W 119°55'0 0.0
2018-May-20 05:54N 34°26' W 119°55'0 0.0
2018-May-20 05:30N 34°26' W 119°55'0 0.0
2018-May-20 03:33N 34°26' W 119°55'0 0.0
2018-May-20 03:30N 34°26' W 119°55'0 0.0
2018-May-20 02:56N 34°26' W 119°55'0 0.0
2018-May-20 00:03N 34°26' W 119°55'0 0.0
2018-May-19 23:41N 34°26' W 119°55'0 0.0
2018-May-19 23:21N 34°26' W 119°55'0 0.0
2018-May-19 16:03N 34°26' W 119°55'1 7.2
2018-May-19 15:58N 34°25' W 119°56'613.2
2018-May-19 15:28N 34°24' W 120°03'510.3
2018-May-19 15:00N 34°23' W 120°09'712.7
2018-May-19 14:29N 34°21' W 120°17'5 9.4
2018-May-19 14:00N 34°22' W 120°12'4 7.2
2018-May-19 13:29N 34°23' W 120°07'0 0.3
2018-May-19 12:58N 34°23' W 120°07'0 0.0
2018-May-19 12:28N 34°23' W 120°07'0 0.0
2018-May-19 11:43N 34°23' W 120°07'0 0.0
2018-May-19 11:25N 34°23' W 120°07'0 0.0
2018-May-19 10:43N 34°23' W 120°07'0 0.0
2018-May-19 10:28N 34°23' W 120°07'0 0.0
2018-May-19 09:52N 34°23' W 120°07'0 0.0
2018-May-19 09:28N 34°23' W 120°07'0 0.0
2018-May-19 08:58N 34°23' W 120°07'0 0.0
2018-May-19 08:25N 34°23' W 120°07'0 0.0
2018-May-19 07:58N 34°23' W 120°07'0 0.0
2018-May-19 07:25N 34°23' W 120°07'0 0.0
2018-May-19 06:58N 34°23' W 120°07'0 0.0
2018-May-19 06:19N 34°23' W 120°07'0 0.0
2018-May-19 06:00N 34°23' W 120°07'0 0.1
2018-May-19 05:23N 34°23' W 120°07'0 0.0
2018-May-19 04:56N 34°23' W 120°07'0 0.0
2018-May-19 04:29N 34°23' W 120°07'0 0.1
2018-May-19 04:00N 34°23' W 120°07'0 0.0
2018-May-19 03:26N 34°23' W 120°07'0 0.0
2018-May-19 02:59N 34°23' W 120°07'0 0.0
2018-May-19 02:28N 34°23' W 120°07'0 0.0
2018-May-19 01:58N 34°23' W 120°07'0 0.0
2018-May-19 01:29N 34°23' W 120°07'0 0.1
2018-May-19 00:59N 34°23' W 120°07'0 0.1
2018-May-19 00:30N 34°23' W 120°07'1 1.5
2018-May-18 23:54N 34°22' W 120°07'2 4.3
2018-May-18 23:20N 34°22' W 120°10'0 0.0
2018-May-18 22:58N 34°22' W 120°10'0 0.0
2018-May-18 22:25N 34°22' W 120°10'0 0.0
2018-May-18 21:56N 34°22' W 120°10'0 0.0
2018-May-18 21:23N 34°22' W 120°10'0 0.1
2018-May-18 20:59N 34°23' W 120°10'0 0.0
2018-May-18 20:27N 34°23' W 120°10'0 0.1
2018-May-18 19:59N 34°23' W 120°10'0 0.0
2018-May-18 19:30N 34°23' W 120°10'0 0.0
2018-May-18 19:00N 34°23' W 120°10'0 0.0
2018-May-18 18:30N 34°23' W 120°10'0 0.0
2018-May-18 17:58N 34°22' W 120°10'0 0.0
2018-May-18 17:30N 34°23' W 120°10'0 0.0
2018-May-18 16:48N 34°23' W 120°10'0 0.0
2018-May-18 16:29N 34°23' W 120°10'0 0.0
2018-May-18 15:59N 34°22' W 120°10'0 0.0
2018-May-18 15:29N 34°22' W 120°10'3 4.4
2018-May-18 14:51N 34°21' W 120°13'3 9.3
2018-May-18 14:31N 34°21' W 120°17'611.0
2018-May-18 14:01N 34°23' W 120°10'3 5.3
2018-May-18 13:28N 34°23' W 120°07'0 0.0
2018-May-18 12:49N 34°23' W 120°07'0 0.1
2018-May-18 12:28N 34°23' W 120°07'0 0.2
2018-May-18 11:54N 34°23' W 120°07'0 0.4
2018-May-18 11:30N 34°23' W 120°07'0 0.0
2018-May-18 11:00N 34°23' W 120°07'0 0.0
2018-May-18 10:27N 34°23' W 120°07'0 0.0
2018-May-18 10:00N 34°23' W 120°07'0 0.0
2018-May-18 09:30N 34°23' W 120°07'0 0.0
2018-May-18 09:00N 34°23' W 120°07'0 0.0
2018-May-18 08:29N 34°23' W 120°07'0 0.1
2018-May-18 07:59N 34°23' W 120°07'0 0.0
2018-May-18 07:30N 34°23' W 120°07'0 0.0
2018-May-18 06:59N 34°23' W 120°07'0 0.1
2018-May-18 06:28N 34°23' W 120°07'0 0.0
2018-May-18 05:59N 34°23' W 120°07'0 0.0
2018-May-18 05:24N 34°23' W 120°07'0 0.0
2018-May-18 04:41N 34°23' W 120°07'0 0.0
2018-May-18 04:26N 34°23' W 120°07'0 0.0
2018-May-18 03:59N 34°23' W 120°07'0 0.0
2018-May-18 03:29N 34°23' W 120°07'0 0.1
2018-May-18 02:59N 34°23' W 120°07'0 0.0
2018-May-18 02:29N 34°23' W 120°07'0 0.0
2018-May-18 01:59N 34°23' W 120°07'0 0.0
2018-May-18 01:30N 34°23' W 120°07'0 0.0
2018-May-18 00:59N 34°23' W 120°07'0 0.1
2018-May-18 00:24N 34°23' W 120°07'0 0.6
2018-May-17 23:59N 34°23' W 120°07'5 9.3
2018-May-17 23:28N 34°22' W 120°13'2 5.2
2018-May-17 23:00N 34°21' W 120°16'3 5.0
2018-May-17 22:29N 34°22' W 120°13'1 1.0
2018-May-17 21:58N 34°22' W 120°12'4 7.8
2018-May-17 21:28N 34°21' W 120°16'612.3
2018-May-17 21:00N 34°23' W 120°10'3 5.8
2018-May-17 20:30N 34°24' W 120°06'9 2.6
2018-May-17 16:51N 34°26' W 119°55'0 0.7
2018-May-17 16:25N 34°26' W 119°55'410.7
2018-May-17 16:00N 34°24' W 120°00'611.3
2018-May-17 15:29N 34°23' W 120°07'4 8.9
2018-May-17 15:00N 34°22' W 120°12'4 7.0
2018-May-17 14:26N 34°21' W 120°17'613.2
2018-May-17 14:00N 34°23' W 120°10'3 5.1
2018-May-17 13:30N 34°23' W 120°07'0 0.0
2018-May-17 12:54N 34°23' W 120°07'0 0.0
2018-May-17 12:29N 34°23' W 120°07'0 0.3
2018-May-17 11:56N 34°23' W 120°07'0 0.3
2018-May-17 11:29N 34°23' W 120°07'0 0.0
2018-May-17 10:56N 34°23' W 120°07'0 0.0
2018-May-17 10:26N 34°23' W 120°07'0 0.0
2018-May-17 09:50N 34°23' W 120°07'0 0.0
2018-May-17 09:29N 34°23' W 120°07'0 0.1
2018-May-17 08:50N 34°23' W 120°07'0 0.0
2018-May-17 08:29N 34°23' W 120°07'0 0.0
2018-May-17 07:53N 34°23' W 120°07'0 0.1
2018-May-17 07:30N 34°23' W 120°07'0 0.1
2018-May-17 07:00N 34°23' W 120°07'0 0.0
2018-May-17 06:29N 34°23' W 120°07'0 0.1
2018-May-17 05:59N 34°23' W 120°07'0 0.0
2018-May-17 05:30N 34°23' W 120°07'0 0.0
2018-May-17 04:59N 34°23' W 120°07'0 0.1
2018-May-17 04:27N 34°23' W 120°07'0 0.0
2018-May-17 04:00N 34°23' W 120°07'0 0.0
2018-May-17 03:21N 34°23' W 120°07'0 0.0
2018-May-17 02:56N 34°23' W 120°07'0 0.0
2018-May-17 02:27N 34°23' W 120°07'0 0.0
2018-May-17 01:57N 34°23' W 120°07'0 0.0
2018-May-17 01:30N 34°23' W 120°07'0 0.0
2018-May-17 00:59N 34°23' W 120°07'0 0.4
2018-May-17 00:28N 34°23' W 120°07'0 0.4
2018-May-16 23:55N 34°23' W 120°07'0 0.0
2018-May-16 23:28N 34°23' W 120°07'0 0.0
2018-May-16 22:58N 34°23' W 120°07'0 0.0
2018-May-16 22:28N 34°23' W 120°07'0 0.0
2018-May-16 21:58N 34°23' W 120°07'0 0.0
2018-May-16 21:28N 34°23' W 120°07'0 0.0
2018-May-16 20:55N 34°23' W 120°07'0 0.0
2018-May-16 20:22N 34°23' W 120°07'0 0.1
2018-May-16 19:50N 34°23' W 120°07'2 7.0
2018-May-16 19:30N 34°24' W 120°04'813.9
2018-May-16 18:58N 34°26' W 119°55'0 0.2
2018-May-16 18:15N 34°26' W 119°55'0 0.0
2018-May-16 17:57N 34°26' W 119°55'0 0.0
2018-May-16 16:43N 34°26' W 119°55'0 1.0
2018-May-16 16:30N 34°26' W 119°56'613.2
2018-May-16 16:00N 34°23' W 120°03'4 6.2
2018-May-16 15:26N 34°23' W 120°07'3 7.0
2018-May-16 14:59N 34°23' W 120°11'510.3
2018-May-16 14:29N 34°21' W 120°17'510.6
2018-May-16 14:01N 34°22' W 120°11'  
Track history (hours):
 
Tides and Currents Weather Stations Pressure Air Temp Water Temp Dewpoint Dewpoint Depression Visibility Wind Speed Wind Dir Waves Ship Positions

Ace High

Owner: C & C BOATS INC, HUNTINGTON BEACH, CA. More information available from US FCC via Universal Licensing System and Coast Guard Vessel Documentation Center.

Last reported at 2018-May-26 14:01 UTC. Time now 2018-May-26 14:08 UTC.
Position N 34°23' W 120°10'.

Length 96 m.

Type: Passenger vessel. MMSI: 367394750.

Date/timePositionNaut miles runAvg speedWind from/ knotsBaromVisibWave heightAir tempDewpointWater temp
2018-May-26 14:01N 34°23' W 120°10'1 1.1
2018-May-26 13:30N 34°23' W 120°09'613.0
2018-May-26 13:01N 34°21' W 120°17'4 8.5
2018-May-26 12:30N 34°22' W 120°12'4 7.2
2018-May-26 11:58N 34°23' W 120°07'0 0.5
2018-May-26 11:30N 34°23' W 120°07'0 0.0
2018-May-26 10:59N 34°23' W 120°07'0 0.0
2018-May-26 10:29N 34°23' W 120°07'0 0.0
2018-May-26 09:55N 34°23' W 120°07'0 0.0
2018-May-26 09:30N 34°23' W 120°07'0 0.0
2018-May-26 09:00N 34°23' W 120°07'0 0.0
2018-May-26 08:29N 34°23' W 120°07'0 0.0
2018-May-26 08:01N 34°23' W 120°07'0 0.1
2018-May-26 07:29N 34°23' W 120°07'0 0.0
2018-May-26 06:59N 34°23' W 120°07'0 0.0
2018-May-26 06:30N 34°23' W 120°07'0 0.0
2018-May-26 05:28N 34°23' W 120°07'0 0.0
2018-May-26 05:00N 34°23' W 120°07'0 0.0
2018-May-26 04:29N 34°23' W 120°07'0 0.0
2018-May-26 03:57N 34°23' W 120°07'0 0.0
2018-May-26 03:29N 34°23' W 120°07'0 0.0
2018-May-26 03:00N 34°23' W 120°07'0 0.0
2018-May-26 02:30N 34°23' W 120°07'0 0.0
2018-May-26 02:00N 34°23' W 120°07'0 0.1
2018-May-26 01:30N 34°23' W 120°07'0 0.0
2018-May-26 00:59N 34°23' W 120°07'0 0.1
2018-May-26 00:31N 34°23' W 120°07'3 4.9
2018-May-25 23:59N 34°23' W 120°10'6 9.4
2018-May-25 23:22N 34°21' W 120°17'3 7.6
2018-May-25 23:00N 34°22' W 120°14'3 5.6
2018-May-25 22:25N 34°22' W 120°10'0 0.0
2018-May-25 22:00N 34°22' W 120°10'0 0.0
2018-May-25 21:29N 34°22' W 120°10'0 0.0
2018-May-25 21:00N 34°22' W 120°10'0 0.0
2018-May-25 20:30N 34°23' W 120°10'0 0.0
2018-May-25 19:39N 34°22' W 120°10'0 0.0
2018-May-25 19:09N 34°22' W 120°10'0 0.0
2018-May-25 19:00N 34°22' W 120°10'0 0.0
2018-May-25 18:21N 34°22' W 120°10'0 0.0
2018-May-25 17:54N 34°22' W 120°10'0 0.0
2018-May-25 17:30N 34°22' W 120°10'0 0.0
2018-May-25 16:30N 34°23' W 120°10'0 0.1
2018-May-25 15:54N 34°22' W 120°10'0 0.0
2018-May-25 15:29N 34°23' W 120°10'611.9
2018-May-25 15:00N 34°21' W 120°17'610.7
2018-May-25 14:27N 34°23' W 120°10'2 4.2
2018-May-25 14:00N 34°23' W 120°08'4 7.2
2018-May-25 13:31N 34°22' W 120°12'4 7.9
2018-May-25 12:58N 34°21' W 120°17'511.8
2018-May-25 12:31N 34°23' W 120°11'3 5.1
2018-May-25 11:57N 34°23' W 120°07'0 0.3
2018-May-25 11:27N 34°23' W 120°07'0 0.0
2018-May-25 11:00N 34°23' W 120°07'0 0.0
2018-May-25 10:26N 34°23' W 120°07'0 0.0
2018-May-25 09:57N 34°23' W 120°07'0 0.0
2018-May-25 09:30N 34°23' W 120°07'0 0.0
2018-May-25 08:57N 34°23' W 120°07'0 0.0
2018-May-25 08:26N 34°23' W 120°07'0 0.0
2018-May-25 08:00N 34°23' W 120°07'0 0.0
2018-May-25 07:27N 34°23' W 120°07'0 0.0
2018-May-25 07:00N 34°23' W 120°07'0 0.0
2018-May-25 06:27N 34°23' W 120°07'0 0.0
2018-May-25 05:57N 34°23' W 120°07'0 0.0
2018-May-25 05:30N 34°23' W 120°07'0 0.0
2018-May-25 05:01N 34°23' W 120°07'0 0.0
2018-May-25 04:30N 34°23' W 120°07'0 0.1
2018-May-25 04:01N 34°23' W 120°07'0 0.0
2018-May-25 03:30N 34°23' W 120°07'0 0.1
2018-May-25 03:01N 34°23' W 120°07'0 0.1
2018-May-25 02:31N 34°23' W 120°07'0 0.0
2018-May-25 02:01N 34°23' W 120°07'0 0.0
2018-May-25 01:30N 34°23' W 120°07'0 0.0
2018-May-25 00:55N 34°23' W 120°07'0 0.3
2018-May-25 00:30N 34°23' W 120°07'511.0
2018-May-25 00:00N 34°21' W 120°13'2 4.6
2018-May-24 23:30N 34°21' W 120°16'510.0
2018-May-24 22:59N 34°22' W 120°10'0 0.0
2018-May-24 22:11N 34°22' W 120°10'0 0.0
2018-May-24 21:59N 34°22' W 120°10'0 0.0
2018-May-24 21:23N 34°22' W 120°10'2 5.3
2018-May-24 20:57N 34°23' W 120°07'713.0
2018-May-24 20:22N 34°24' W 119°58'3 7.5
2018-May-24 19:59N 34°26' W 119°55'0 0.1
2018-May-24 16:44N 34°26' W 119°55'0 0.0
2018-May-24 16:23N 34°26' W 119°55'0 0.5
2018-May-24 15:56N 34°26' W 119°55'0 0.4
2018-May-24 15:25N 34°26' W 119°55'0 0.4
2018-May-24 14:55N 34°26' W 119°55'4 8.1
2018-May-24 14:27N 34°24' W 119°60'613.1
2018-May-24 14:01N 34°24' W 120°07'5 9.5
2018-May-24 13:31N 34°22' W 120°12'4 1.0
2018-May-24 08:55N 34°23' W 120°07'0 0.0
2018-May-24 08:25N 34°23' W 120°07'0 0.0
2018-May-24 07:55N 34°23' W 120°07'0 0.0
2018-May-24 07:28N 34°23' W 120°07'0 0.0
2018-May-24 06:16N 34°23' W 120°07'0 0.0
2018-May-24 05:55N 34°23' W 120°07'0 0.0
2018-May-24 04:58N 34°23' W 120°07'0 0.0
2018-May-24 04:22N 34°23' W 120°07'0 0.1
2018-May-24 03:56N 34°23' W 120°07'0 0.0
2018-May-24 03:30N 34°23' W 120°07'0 0.1
2018-May-24 02:59N 34°23' W 120°07'0 0.0
2018-May-24 02:29N 34°23' W 120°07'0 0.0
2018-May-24 02:00N 34°23' W 120°07'0 0.0
2018-May-24 01:30N 34°23' W 120°07'0 0.0
2018-May-24 00:59N 34°23' W 120°07'0 0.0
2018-May-24 00:29N 34°23' W 120°07'0 0.0
2018-May-24 00:00N 34°23' W 120°07'4 5.4
2018-May-23 23:20N 34°23' W 120°03'7 5.1
2018-May-23 22:03N 34°26' W 119°55'0 0.0
2018-May-23 17:03N 34°26' W 119°55'0 0.0
2018-May-23 16:39N 34°26' W 119°55'0 1.8
2018-May-23 16:30N 34°26' W 119°55'611.9
2018-May-23 16:00N 34°24' W 120°02'4 7.4
2018-May-23 15:27N 34°23' W 120°07'1 2.1
2018-May-23 15:01N 34°23' W 120°08'713.6
2018-May-23 14:31N 34°21' W 120°16'4 6.9
2018-May-23 14:00N 34°22' W 120°12'4 8.5
2018-May-23 13:30N 34°23' W 120°07'0 0.1
2018-May-23 13:00N 34°23' W 120°07'0 0.0
2018-May-23 12:30N 34°23' W 120°07'0 0.0
2018-May-23 12:00N 34°23' W 120°07'0 0.0
2018-May-23 11:30N 34°23' W 120°07'0 0.0
2018-May-23 11:00N 34°23' W 120°07'0 0.0
2018-May-23 10:27N 34°23' W 120°07'0 0.0
2018-May-23 10:00N 34°23' W 120°07'0 0.1
2018-May-23 09:30N 34°23' W 120°07'0 0.0
2018-May-23 08:57N 34°23' W 120°07'0 0.0
2018-May-23 08:30N 34°23' W 120°07'0 0.0
2018-May-23 08:00N 34°23' W 120°07'0 0.0
2018-May-23 07:30N 34°23' W 120°07'0 0.0
2018-May-23 06:18N 34°23' W 120°07'0 0.0
2018-May-23 06:00N 34°23' W 120°07'0 0.0
2018-May-23 05:12N 34°23' W 120°07'0 0.0
2018-May-23 04:57N 34°23' W 120°07'0 0.0
2018-May-23 04:30N 34°23' W 120°07'0 0.0
2018-May-23 03:59N 34°23' W 120°07'0 0.1
2018-May-23 03:30N 34°23' W 120°07'0 0.0
2018-May-23 02:57N 34°23' W 120°07'0 0.0
2018-May-23 02:26N 34°23' W 120°07'0 0.0
2018-May-23 01:56N 34°23' W 120°07'10 1.4
2018-May-22 18:54N 34°26' W 119°55'0 0.0
2018-May-22 16:47N 34°26' W 119°55'0 0.0
2018-May-22 16:19N 34°26' W 119°55'3 7.5
2018-May-22 15:56N 34°24' W 119°58'713.7
2018-May-22 15:25N 34°24' W 120°07'511.0
2018-May-22 14:59N 34°22' W 120°12'4 8.1
2018-May-22 14:29N 34°21' W 120°17'612.1
2018-May-22 14:00N 34°23' W 120°10'3 5.0
2018-May-22 13:30N 34°23' W 120°07'0 0.0
2018-May-22 13:00N 34°23' W 120°07'914.1
2018-May-22 12:23N 34°24' W 119°57'2 4.0
2018-May-22 11:52N 34°26' W 119°55'511.3
2018-May-22 11:25N 34°24' W 120°01'5 7.6
2018-May-22 10:45N 34°23' W 120°07'0 0.0
2018-May-22 10:29N 34°23' W 120°07'0 0.0
2018-May-22 09:59N 34°23' W 120°07'0 0.0
2018-May-22 09:29N 34°23' W 120°07'0 0.0
2018-May-22 08:59N 34°23' W 120°07'0 0.0
2018-May-22 08:29N 34°23' W 120°07'0 0.0
2018-May-22 07:58N 34°23' W 120°07'0 0.0
2018-May-22 07:28N 34°23' W 120°07'0 0.0
2018-May-22 06:57N 34°23' W 120°07'0 0.1
2018-May-22 06:28N 34°23' W 120°07'0 0.0
2018-May-22 05:48N 34°23' W 120°07'0 0.0
2018-May-22 05:23N 34°23' W 120°07'0 0.0
2018-May-22 05:00N 34°23' W 120°07'0 0.0
2018-May-22 04:28N 34°23' W 120°07'0 0.0
2018-May-22 03:58N 34°23' W 120°07'0 0.0
2018-May-22 02:55N 34°23' W 120°07'0 0.0
2018-May-22 02:28N 34°23' W 120°07'0 0.0
2018-May-22 02:00N 34°23' W 120°07'0 0.0
2018-May-22 01:18N 34°23' W 120°07'0 1.5
2018-May-22 01:00N 34°23' W 120°08'0 0.9
2018-May-22 00:29N 34°23' W 120°07'0 0.0
2018-May-21 23:59N 34°23' W 120°07'0 0.0
2018-May-21 23:08N 34°23' W 120°07'0 0.0
2018-May-21 22:59N 34°23' W 120°07'0 0.1
2018-May-21 22:30N 34°23' W 120°07'2 4.9
2018-May-21 22:00N 34°22' W 120°10'0 0.0
2018-May-21 21:30N 34°22' W 120°10'0 0.1
2018-May-21 21:00N 34°22' W 120°10'0 0.0
2018-May-21 20:26N 34°22' W 120°10'0 0.0
2018-May-21 20:00N 34°22' W 120°10'0 0.0
2018-May-21 19:29N 34°22' W 120°10'0 0.0
2018-May-21 18:59N 34°22' W 120°10'0 0.0
2018-May-21 18:25N 34°22' W 120°10'0 0.0
2018-May-21 17:58N 34°22' W 120°10'0 0.0
2018-May-21 17:25N 34°22' W 120°10'0 0.0
2018-May-21 16:59N 34°22' W 120°10'0 0.0
2018-May-21 16:28N 34°22' W 120°10'2 4.1
2018-May-21 16:01N 34°23' W 120°08'1 1.9
2018-May-21 15:30N 34°23' W 120°09'3 6.8
2018-May-21 15:00N 34°22' W 120°13'3 6.5
2018-May-21 14:28N 34°21' W 120°17'612.1
2018-May-21 14:00N 34°22' W 120°10'3 5.1
2018-May-21 13:30N 34°23' W 120°07'0 0.5
2018-May-21 13:00N 34°23' W 120°07'3 5.3
2018-May-21 12:30N 34°23' W 120°10'2 4.9
2018-May-21 12:00N 34°23' W 120°07'0 0.4
2018-May-21 11:27N 34°23' W 120°07'0 0.0
2018-May-21 10:59N 34°23' W 120°07'0 0.0
2018-May-21 10:30N 34°23' W 120°07'0 0.0
2018-May-21 10:00N 34°23' W 120°07'0 0.0
2018-May-21 09:29N 34°23' W 120°07'0 0.0
2018-May-21 08:59N 34°23' W 120°07'0 0.0
2018-May-21 08:30N 34°23' W 120°07'0 0.0
2018-May-21 07:58N 34°23' W 120°07'0 0.1
2018-May-21 07:31N 34°23' W 120°07'0 0.0
2018-May-21 06:55N 34°23' W 120°07'0 0.1
2018-May-21 06:28N 34°23' W 120°07'0 0.0
2018-May-21 06:00N 34°23' W 120°07'0 0.0
2018-May-21 05:30N 34°23' W 120°07'0 0.0
2018-May-21 04:55N 34°23' W 120°07'0 0.1
2018-May-21 04:28N 34°23' W 120°07'0 0.0
2018-May-21 03:58N 34°23' W 120°07'0 0.0
2018-May-21 03:28N 34°23' W 120°07'0 0.0
2018-May-21 02:58N 34°23' W 120°07'0 0.0
2018-May-21 02:29N 34°23' W 120°07'0 0.0
2018-May-21 01:56N 34°23' W 120°07'0 0.0
2018-May-21 01:29N 34°23' W 120°07'0 0.0
2018-May-21 00:59N 34°23' W 120°07'0 0.0
2018-May-21 00:25N 34°23' W 120°07'0 0.0
2018-May-20 23:51N 34°23' W 120°07'0 1.0
2018-May-20 23:30N 34°23' W 120°07'612.8
2018-May-20 23:00N 34°21' W 120°15'1 2.1
2018-May-20 22:30N 34°22' W 120°13'3 5.7
2018-May-20 22:00N 34°22' W 120°10'0 0.0
2018-May-20 21:31N 34°22' W 120°10'0 0.0
2018-May-20 20:59N 34°22' W 120°10'0 0.1
2018-May-20 20:27N 34°23' W 120°10'0 0.0
2018-May-20 19:57N 34°23' W 120°10'0 0.0
2018-May-20 19:20N 34°23' W 120°10'0 0.1
2018-May-20 18:56N 34°22' W 120°10'0 0.0
2018-May-20 18:26N 34°22' W 120°10'0 0.0
2018-May-20 17:58N 34°22' W 120°10'0 0.0
2018-May-20 17:20N 34°22' W 120°10'0 0.0
2018-May-20 16:59N 34°22' W 120°10'0 0.0
2018-May-20 16:27N 34°22' W 120°10'0 0.0
2018-May-20 15:55N 34°22' W 120°10'0 0.0
2018-May-20 15:30N 34°22' W 120°10'1 2.0
2018-May-20 15:01N 34°22' W 120°11'5 9.8
2018-May-20 14:30N 34°21' W 120°17'510.0
2018-May-20 14:00N 34°22' W 120°11'3 6.7
2018-May-20 13:30N 34°23' W 120°07'1 2.5
2018-May-20 12:59N 34°23' W 120°06'713.0
2018-May-20 12:29N 34°24' W 119°58'2 1.4
2018-May-20 10:41N 34°26' W 119°55'0 0.0
2018-May-20 10:26N 34°26' W 119°55'0 0.0
2018-May-20 08:51N 34°26' W 119°55'0 0.0
2018-May-20 06:14N 34°26' W 119°55'0 0.0
2018-May-20 05:54N 34°26' W 119°55'0 0.0
2018-May-20 05:30N 34°26' W 119°55'0 0.0
2018-May-20 03:33N 34°26' W 119°55'0 0.0
2018-May-20 03:30N 34°26' W 119°55'0 0.0
2018-May-20 02:56N 34°26' W 119°55'0 0.0
2018-May-20 00:03N 34°26' W 119°55'0 0.0
2018-May-19 23:41N 34°26' W 119°55'0 0.0
2018-May-19 23:21N 34°26' W 119°55'0 0.0
2018-May-19 16:03N 34°26' W 119°55'1 7.2
2018-May-19 15:58N 34°25' W 119°56'613.2
2018-May-19 15:28N 34°24' W 120°03'510.3
2018-May-19 15:00N 34°23' W 120°09'712.7
2018-May-19 14:29N 34°21' W 120°17'5 9.4
2018-May-19 14:00N 34°22' W 120°12'4 7.2
2018-May-19 13:29N 34°23' W 120°07'0 0.3
2018-May-19 12:58N 34°23' W 120°07'0 0.0
2018-May-19 12:28N 34°23' W 120°07'0 0.0
2018-May-19 11:43N 34°23' W 120°07'0 0.0
2018-May-19 11:25N 34°23' W 120°07'0 0.0
2018-May-19 10:43N 34°23' W 120°07'0 0.0
2018-May-19 10:28N 34°23' W 120°07'0 0.0
2018-May-19 09:52N 34°23' W 120°07'0 0.0
2018-May-19 09:28N 34°23' W 120°07'0 0.0
2018-May-19 08:58N 34°23' W 120°07'0 0.0
2018-May-19 08:25N 34°23' W 120°07'0 0.0
2018-May-19 07:58N 34°23' W 120°07'0 0.0
2018-May-19 07:25N 34°23' W 120°07'0 0.0
2018-May-19 06:58N 34°23' W 120°07'0 0.0
2018-May-19 06:19N 34°23' W 120°07'0 0.0
2018-May-19 06:00N 34°23' W 120°07'0 0.1
2018-May-19 05:23N 34°23' W 120°07'0 0.0
2018-May-19 04:56N 34°23' W 120°07'0 0.0
2018-May-19 04:29N 34°23' W 120°07'0 0.1
2018-May-19 04:00N 34°23' W 120°07'0 0.0
2018-May-19 03:26N 34°23' W 120°07'0 0.0
2018-May-19 02:59N 34°23' W 120°07'0 0.0
2018-May-19 02:28N 34°23' W 120°07'0 0.0
2018-May-19 01:58N 34°23' W 120°07'0 0.0
2018-May-19 01:29N 34°23' W 120°07'0 0.1
2018-May-19 00:59N 34°23' W 120°07'0 0.1
2018-May-19 00:30N 34°23' W 120°07'1 1.5
2018-May-18 23:54N 34°22' W 120°07'2 4.3
2018-May-18 23:20N 34°22' W 120°10'0 0.0
2018-May-18 22:58N 34°22' W 120°10'0 0.0
2018-May-18 22:25N 34°22' W 120°10'0 0.0
2018-May-18 21:56N 34°22' W 120°10'0 0.0
2018-May-18 21:23N 34°22' W 120°10'0 0.1
2018-May-18 20:59N 34°23' W 120°10'0 0.0
2018-May-18 20:27N 34°23' W 120°10'0 0.1
2018-May-18 19:59N 34°23' W 120°10'0 0.0
2018-May-18 19:30N 34°23' W 120°10'0 0.0
2018-May-18 19:00N 34°23' W 120°10'0 0.0
2018-May-18 18:30N 34°23' W 120°10'0 0.0
2018-May-18 17:58N 34°22' W 120°10'0 0.0
2018-May-18 17:30N 34°23' W 120°10'0 0.0
2018-May-18 16:48N 34°23' W 120°10'0 0.0
2018-May-18 16:29N 34°23' W 120°10'0 0.0
2018-May-18 15:59N 34°22' W 120°10'0 0.0
2018-May-18 15:29N 34°22' W 120°10'3 4.4
2018-May-18 14:51N 34°21' W 120°13'3 9.3
2018-May-18 14:31N 34°21' W 120°17'611.0
2018-May-18 14:01N 34°23' W 120°10'3 5.3
2018-May-18 13:28N 34°23' W 120°07'0 0.0
2018-May-18 12:49N 34°23' W 120°07'0 0.1
2018-May-18 12:28N 34°23' W 120°07'0 0.2
2018-May-18 11:54N 34°23' W 120°07'0 0.4
2018-May-18 11:30N 34°23' W 120°07'0 0.0
2018-May-18 11:00N 34°23' W 120°07'0 0.0
2018-May-18 10:27N 34°23' W 120°07'0 0.0
2018-May-18 10:00N 34°23' W 120°07'0 0.0
2018-May-18 09:30N 34°23' W 120°07'0 0.0
2018-May-18 09:00N 34°23' W 120°07'0 0.0
2018-May-18 08:29N 34°23' W 120°07'0 0.1
2018-May-18 07:59N 34°23' W 120°07'0 0.0
2018-May-18 07:30N 34°23' W 120°07'0 0.0
2018-May-18 06:59N 34°23' W 120°07'0 0.1
2018-May-18 06:28N 34°23' W 120°07'0 0.0
2018-May-18 05:59N 34°23' W 120°07'0 0.0
2018-May-18 05:24N 34°23' W 120°07'0 0.0
2018-May-18 04:41N 34°23' W 120°07'0 0.0
2018-May-18 04:26N 34°23' W 120°07'0 0.0
2018-May-18 03:59N 34°23' W 120°07'0 0.0
2018-May-18 03:29N 34°23' W 120°07'0 0.1
2018-May-18 02:59N 34°23' W 120°07'0 0.0
2018-May-18 02:29N 34°23' W 120°07'0 0.0
2018-May-18 01:59N 34°23' W 120°07'0 0.0
2018-May-18 01:30N 34°23' W 120°07'0 0.0
2018-May-18 00:59N 34°23' W 120°07'0 0.1
2018-May-18 00:24N 34°23' W 120°07'0 0.6
2018-May-17 23:59N 34°23' W 120°07'5 9.3
2018-May-17 23:28N 34°22' W 120°13'2 5.2
2018-May-17 23:00N 34°21' W 120°16'3 5.0
2018-May-17 22:29N 34°22' W 120°13'1 1.0
2018-May-17 21:58N 34°22' W 120°12'4 7.8
2018-May-17 21:28N 34°21' W 120°16'612.3
2018-May-17 21:00N 34°23' W 120°10'3 5.8
2018-May-17 20:30N 34°24' W 120°06'9 2.6
2018-May-17 16:51N 34°26' W 119°55'0 0.7
2018-May-17 16:25N 34°26' W 119°55'410.7
2018-May-17 16:00N 34°24' W 120°00'611.3
2018-May-17 15:29N 34°23' W 120°07'4 8.9
2018-May-17 15:00N 34°22' W 120°12'4 7.0
2018-May-17 14:26N 34°21' W 120°17'613.2
2018-May-17 14:00N 34°23' W 120°10'3 5.1
2018-May-17 13:30N 34°23' W 120°07'0 0.0
2018-May-17 12:54N 34°23' W 120°07'0 0.0
2018-May-17 12:29N 34°23' W 120°07'0 0.3
2018-May-17 11:56N 34°23' W 120°07'0 0.3
2018-May-17 11:29N 34°23' W 120°07'0 0.0
2018-May-17 10:56N 34°23' W 120°07'0 0.0
2018-May-17 10:26N 34°23' W 120°07'0 0.0
2018-May-17 09:50N 34°23' W 120°07'0 0.0
2018-May-17 09:29N 34°23' W 120°07'0 0.1
2018-May-17 08:50N 34°23' W 120°07'0 0.0
2018-May-17 08:29N 34°23' W 120°07'0 0.0
2018-May-17 07:53N 34°23' W 120°07'0 0.1
2018-May-17 07:30N 34°23' W 120°07'0 0.1
2018-May-17 07:00N 34°23' W 120°07'0 0.0
2018-May-17 06:29N 34°23' W 120°07'0 0.1
2018-May-17 05:59N 34°23' W 120°07'0 0.0
2018-May-17 05:30N 34°23' W 120°07'0 0.0
2018-May-17 04:59N 34°23' W 120°07'0 0.1
2018-May-17 04:27N 34°23' W 120°07'0 0.0
2018-May-17 04:00N 34°23' W 120°07'0 0.0
2018-May-17 03:21N 34°23' W 120°07'0 0.0
2018-May-17 02:56N 34°23' W 120°07'0 0.0
2018-May-17 02:27N 34°23' W 120°07'0 0.0
2018-May-17 01:57N 34°23' W 120°07'0 0.0
2018-May-17 01:30N 34°23' W 120°07'0 0.0
2018-May-17 00:59N 34°23' W 120°07'0 0.4
2018-May-17 00:28N 34°23' W 120°07'0 0.4
2018-May-16 23:55N 34°23' W 120°07'0 0.0
2018-May-16 23:28N 34°23' W 120°07'0 0.0
2018-May-16 22:58N 34°23' W 120°07'0 0.0
2018-May-16 22:28N 34°23' W 120°07'0 0.0
2018-May-16 21:58N 34°23' W 120°07'0 0.0
2018-May-16 21:28N 34°23' W 120°07'0 0.0
2018-May-16 20:55N 34°23' W 120°07'0 0.0
2018-May-16 20:22N 34°23' W 120°07'0 0.1
2018-May-16 19:50N 34°23' W 120°07'2 7.0
2018-May-16 19:30N 34°24' W 120°04'813.9
2018-May-16 18:58N 34°26' W 119°55'0 0.2
2018-May-16 18:15N 34°26' W 119°55'0 0.0
2018-May-16 17:57N 34°26' W 119°55'0 0.0
2018-May-16 16:43N 34°26' W 119°55'0 1.0
2018-May-16 16:30N 34°26' W 119°56'613.2
2018-May-16 16:00N 34°23' W 120°03'4 6.2
2018-May-16 15:26N 34°23' W 120°07'3 7.0
2018-May-16 14:59N 34°23' W 120°11'510.3
2018-May-16 14:29N 34°21' W 120°17'510.6
2018-May-16 14:01N 34°22' W 120°11'  

Dump ship's entire track history